createdAt,value
2022-10-23T00:01:15.379Z,101638.91
2022-10-23T00:03:48.202Z,101637.16
2022-10-23T00:06:21.959Z,101644.16
2022-10-23T00:08:53.881Z,101646.78
2022-10-23T00:11:29.883Z,101644.16
2022-10-23T00:14:05.207Z,101642.38
2022-10-23T00:16:37.511Z,101645.00
2022-10-23T00:19:09.639Z,101646.75
2022-10-23T00:21:41.723Z,101640.63
2022-10-23T00:24:13.780Z,101638.91
2022-10-23T00:26:45.702Z,101638.88
2022-10-23T00:29:17.880Z,101641.50
2022-10-23T00:31:49.793Z,101640.63
2022-10-23T00:34:21.764Z,101635.38
2022-10-23T00:36:53.650Z,101644.13
2022-10-23T00:39:25.608Z,101645.88
2022-10-23T00:41:57.524Z,101640.63
2022-10-23T00:44:29.367Z,101640.63
2022-10-23T00:47:01.286Z,101634.53
2022-10-23T00:49:34.414Z,101631.91
2022-10-23T00:52:10.278Z,101633.66
2022-10-23T00:54:43.738Z,101634.53
2022-10-23T00:57:16.216Z,101623.16
2022-10-23T00:59:48.304Z,101631.91
2022-10-23T01:02:20.978Z,101630.16
2022-10-23T01:04:52.981Z,101623.16
2022-10-23T01:07:46.432Z,101625.78
2022-10-23T01:10:44.868Z,101626.66
2022-10-23T01:13:50.447Z,101630.16
2022-10-23T01:16:53.048Z,101631.03
2022-10-23T01:19:38.305Z,101622.31
2022-10-23T01:23:04.370Z,101619.69
2022-10-23T01:26:35.700Z,101613.56
2022-10-23T01:29:41.040Z,101619.69
2022-10-23T01:32:22.363Z,101623.19
2022-10-23T01:35:10.913Z,101619.69
2022-10-23T01:37:46.043Z,101617.94
2022-10-23T01:40:32.821Z,101628.44
2022-10-23T01:43:38.809Z,101627.56
2022-10-23T01:46:16.606Z,101626.69
2022-10-23T01:48:53.405Z,101623.19
2022-10-23T01:51:29.388Z,101625.81
2022-10-23T01:54:01.639Z,101618.81
2022-10-23T01:56:37.958Z,101617.94
2022-10-23T01:59:16.541Z,101628.44
2022-10-23T02:01:52.773Z,101625.81
2022-10-23T02:04:36.920Z,101626.69
2022-10-23T02:07:09.347Z,101624.94
2022-10-23T02:09:41.355Z,101616.19
2022-10-23T02:12:32.373Z,101620.56
2022-10-23T02:15:14.388Z,101622.31
2022-10-23T02:18:09.766Z,101609.22
2022-10-23T02:20:49.988Z,101617.94
2022-10-23T02:23:33.500Z,101607.47
2022-10-23T02:26:24.503Z,101606.59
2022-10-23T02:31:58.117Z,101597.81
2022-10-23T02:34:30.097Z,101597.81
2022-10-23T02:37:02.687Z,101590.81
2022-10-23T02:39:34.624Z,101594.31
2022-10-23T02:42:26.799Z,101589.94
2022-10-23T02:45:12.827Z,101591.69
2022-10-23T02:47:52.995Z,101583.84
2022-10-23T02:50:52.102Z,101570.75
2022-10-23T02:54:22.770Z,101569.00
2022-10-23T02:57:18.901Z,101576.84
2022-10-23T03:00:05.874Z,101576.84
2022-10-23T03:02:43.497Z,101569.88
2022-10-23T03:05:21.665Z,101565.50
2022-10-23T03:07:53.771Z,101569.84
2022-10-23T03:10:25.753Z,101566.38
2022-10-23T03:12:57.855Z,101564.63
2022-10-23T03:15:29.778Z,101573.34
2022-10-23T03:18:01.751Z,101574.22
2022-10-23T03:20:33.787Z,101566.38
2022-10-23T03:23:05.755Z,101559.38
2022-10-23T03:25:37.989Z,101567.22
2022-10-23T03:28:09.874Z,101556.75
2022-10-23T03:30:41.755Z,101550.66
2022-10-23T03:33:14.009Z,101544.53
2022-10-23T03:35:45.990Z,101548.91
2022-10-23T03:38:17.910Z,101546.28
2022-10-23T03:40:49.780Z,101539.28
2022-10-23T03:43:21.715Z,101531.44
2022-10-23T03:45:53.621Z,101537.53
2022-10-23T03:48:25.521Z,101535.81
2022-10-23T03:50:57.407Z,101530.56
2022-10-23T03:53:29.325Z,101531.44
2022-10-23T03:56:01.346Z,101535.81
2022-10-23T03:58:33.304Z,101529.69
2022-10-23T04:01:05.386Z,101527.06
2022-10-23T04:03:37.356Z,101528.81
2022-10-23T04:06:09.777Z,101541.03
2022-10-23T04:08:44.406Z,101547.16
2022-10-23T04:11:16.300Z,101549.78
2022-10-23T04:13:48.276Z,101553.25
2022-10-23T04:16:20.317Z,101541.91
2022-10-23T04:18:52.721Z,101556.75
2022-10-23T04:21:24.669Z,101539.28
2022-10-23T04:23:56.626Z,101534.06
2022-10-23T04:26:28.562Z,101527.94
2022-10-23T04:29:00.484Z,101526.19
2022-10-23T04:31:32.383Z,101527.06
2022-10-23T04:36:56.176Z,101523.56
2022-10-23T04:39:28.171Z,101518.34
2022-10-23T04:42:00.117Z,101520.97
2022-10-23T04:44:32.012Z,101526.19
2022-10-23T04:47:03.991Z,101515.72
2022-10-23T04:49:35.872Z,101523.56
2022-10-23T04:52:07.737Z,101521.81
2022-10-23T04:54:41.055Z,101520.94
2022-10-23T04:57:12.935Z,101519.22
2022-10-23T04:59:44.836Z,101520.94
2022-10-23T05:02:16.723Z,101524.44
2022-10-23T05:04:48.640Z,101522.69
2022-10-23T05:10:12.398Z,101537.53
2022-10-23T05:12:44.299Z,101526.19
2022-10-23T05:15:16.415Z,101526.19
2022-10-23T05:17:53.102Z,101529.69
2022-10-23T05:20:30.733Z,101541.91
2022-10-23T05:23:07.070Z,101532.31
2022-10-23T05:25:39.006Z,101527.94
2022-10-23T05:28:10.908Z,101524.44
2022-10-23T05:30:43.404Z,101523.56
2022-10-23T05:33:15.513Z,101521.81
2022-10-23T05:35:47.427Z,101526.19
2022-10-23T05:38:19.745Z,101520.94
2022-10-23T05:40:53.169Z,101520.94
2022-10-23T05:43:27.320Z,101513.97
2022-10-23T05:45:59.629Z,101513.09
2022-10-23T05:48:34.744Z,101502.63
2022-10-23T05:51:09.903Z,101500.00
2022-10-23T05:53:42.595Z,101491.25
2022-10-23T05:56:14.677Z,101488.59
2022-10-23T05:58:46.864Z,101486.00
2022-10-23T06:01:19.086Z,101478.09
2022-10-23T06:03:51.305Z,101482.50
2022-10-23T06:06:23.207Z,101481.59
2022-10-23T06:08:55.331Z,101478.97
2022-10-23T06:11:27.261Z,101472.84
2022-10-23T06:14:01.012Z,101477.22
2022-10-23T06:16:33.315Z,101480.72
2022-10-23T06:19:05.218Z,101484.19
2022-10-23T06:21:38.889Z,101487.69
2022-10-23T06:24:11.013Z,101481.59
2022-10-23T06:26:43.083Z,101483.34
2022-10-23T06:29:15.004Z,101479.00
2022-10-23T06:31:46.928Z,101475.53
2022-10-23T06:34:18.911Z,101476.44
2022-10-23T06:36:51.016Z,101472.06
2022-10-23T06:39:24.361Z,101466.84
2022-10-23T06:41:58.164Z,101467.72
2022-10-23T06:44:30.079Z,101471.19
2022-10-23T06:47:02.372Z,101476.44
2022-10-23T06:49:34.357Z,101484.28
2022-10-23T06:52:11.085Z,101478.19
2022-10-23T06:54:58.360Z,101479.06
2022-10-23T06:57:30.282Z,101470.31
2022-10-23T07:00:02.409Z,101475.56
2022-10-23T07:02:34.349Z,101471.19
2022-10-23T07:05:08.784Z,101465.06
2022-10-23T07:07:44.701Z,101464.22
2022-10-23T07:10:16.638Z,101473.81
2022-10-23T07:12:49.041Z,101470.31
2022-10-23T07:15:21.003Z,101467.69
2022-10-23T07:17:53.028Z,101465.06
2022-10-23T07:20:24.983Z,101469.41
2022-10-23T07:22:57.637Z,101468.50
2022-10-23T07:25:29.525Z,101476.34
2022-10-23T07:28:01.424Z,101478.06
2022-10-23T07:30:33.392Z,101480.66
2022-10-23T07:33:05.339Z,101477.16
2022-10-23T07:35:40.960Z,101477.13
2022-10-23T07:38:13.938Z,101474.53
2022-10-23T07:40:46.096Z,101479.72
2022-10-23T07:43:21.160Z,101474.47
2022-10-23T07:45:54.070Z,101467.44
2022-10-23T07:48:27.365Z,101471.78
2022-10-23T07:51:03.143Z,101463.94
2022-10-23T07:53:35.909Z,101471.81
2022-10-23T07:56:18.884Z,101463.91
2022-10-23T07:58:53.854Z,101467.31
2022-10-23T08:01:38.025Z,101462.91
2022-10-23T08:04:11.004Z,101457.63
2022-10-23T08:06:42.877Z,101453.22
2022-10-23T08:09:14.824Z,101454.94
2022-10-23T08:11:46.777Z,101460.16
2022-10-23T08:14:18.719Z,101461.09
2022-10-23T08:16:50.710Z,101461.94
2022-10-23T08:19:22.768Z,101456.66
2022-10-23T08:21:55.346Z,101448.75
2022-10-23T08:24:27.399Z,101460.06
2022-10-23T08:26:59.500Z,101453.00
2022-10-23T08:29:31.494Z,101440.75
2022-10-23T08:32:03.524Z,101444.19
2022-10-23T08:34:37.988Z,101433.69
2022-10-23T08:37:09.859Z,101435.34
2022-10-23T08:39:41.794Z,101431.81
2022-10-23T08:42:23.812Z,101439.63
2022-10-23T08:45:04.425Z,101429.03
2022-10-23T08:47:44.232Z,101416.66
2022-10-23T08:50:49.721Z,101435.13
2022-10-23T08:53:36.897Z,101435.13
2022-10-23T08:56:31.728Z,101430.66
2022-10-23T08:59:33.222Z,101427.13
2022-10-23T09:02:18.108Z,101427.03
2022-10-23T09:04:53.243Z,101419.94
2022-10-23T09:08:04.574Z,101417.25
2022-10-23T09:10:58.250Z,101415.50
2022-10-23T09:14:07.100Z,101410.91
2022-10-23T09:17:22.513Z,101406.50
2022-10-23T09:20:06.441Z,101421.34
2022-10-23T09:22:38.951Z,101420.31
2022-10-23T09:25:17.940Z,101403.56
2022-10-23T09:27:58.192Z,101401.84
2022-10-23T09:30:39.495Z,101395.63
2022-10-23T09:33:27.308Z,101402.53
2022-10-23T09:36:05.378Z,101406.66
2022-10-23T09:38:59.287Z,101403.06
2022-10-23T09:41:37.463Z,101407.22
2022-10-23T09:44:34.250Z,101397.25
2022-10-23T09:47:06.088Z,101395.94
2022-10-23T09:49:46.212Z,101392.16
2022-10-23T09:52:23.803Z,101395.63
2022-10-23T09:55:23.176Z,101387.69
2022-10-23T09:57:56.151Z,101390.88
2022-10-23T10:00:28.650Z,101394.00
2022-10-23T10:03:05.276Z,101394.75
2022-10-23T10:05:39.635Z,101389.28
2022-10-23T10:08:20.323Z,101384.47
2022-10-23T10:11:22.968Z,101381.84
2022-10-23T10:14:28.506Z,101375.66
2022-10-23T10:17:18.340Z,101386.19
2022-10-23T10:20:28.830Z,101368.41
2022-10-23T10:23:33.591Z,101364.81
2022-10-23T10:26:44.770Z,101369.75
2022-10-23T10:30:10.545Z,101371.25
2022-10-23T10:32:57.462Z,101358.56
2022-10-23T10:35:48.803Z,101345.53
2022-10-23T10:38:48.099Z,101341.94
2022-10-23T10:41:37.986Z,101348.47
2022-10-23T10:44:23.003Z,101338.09
2022-10-23T10:47:09.862Z,101334.19
2022-10-23T10:50:26.851Z,101329.88
2022-10-23T10:53:48.561Z,101329.56
2022-10-23T10:56:23.544Z,101319.91
2022-10-23T10:59:18.311Z,101317.81
2022-10-23T11:02:11.922Z,101313.94
2022-10-23T11:05:02.950Z,101317.59
2022-10-23T11:07:41.695Z,101308.16
2022-10-23T11:10:19.610Z,101294.78
2022-10-23T11:12:52.381Z,101292.44
2022-10-23T11:15:48.165Z,101299.22
2022-10-23T11:18:28.670Z,101300.75
2022-10-23T11:21:28.088Z,101304.94
2022-10-23T11:24:11.639Z,101292.81
2022-10-23T11:27:14.552Z,101287.59
2022-10-23T11:30:07.822Z,101286.59
2022-10-23T11:33:28.674Z,101278.94
2022-10-23T11:36:15.056Z,101280.66
2022-10-23T11:38:50.982Z,101273.78
2022-10-23T11:41:34.018Z,101265.13
2022-10-23T11:44:29.830Z,101259.25
2022-10-23T11:47:05.156Z,101256.38
2022-10-23T11:49:37.104Z,101258.94
2022-10-23T11:52:24.866Z,101252.00
2022-10-23T11:55:27.554Z,101248.50
2022-10-23T11:58:23.353Z,101235.28
2022-10-23T12:01:06.102Z,101223.47
2022-10-23T12:04:22.709Z,101215.59
2022-10-23T12:07:02.899Z,101212.59
2022-10-23T12:09:44.488Z,101208.94
2022-10-23T12:12:28.561Z,101192.78
2022-10-23T12:15:28.067Z,101181.28
2022-10-23T12:18:16.516Z,101188.19
2022-10-23T12:20:54.603Z,101175.78
2022-10-23T12:24:03.674Z,101155.31
2022-10-23T12:26:45.830Z,101147.00
2022-10-23T12:30:04.089Z,101144.09
2022-10-23T12:33:27.889Z,101139.53
2022-10-23T12:36:37.053Z,101135.16
2022-10-23T12:39:37.482Z,101131.88
2022-10-23T12:42:27.140Z,101123.38
2022-10-23T12:45:18.754Z,101117.66
2022-10-23T12:47:52.098Z,101110.50
2022-10-23T12:50:32.946Z,101102.34
2022-10-23T12:53:08.375Z,101083.78
2022-10-23T12:56:12.455Z,101074.22
2022-10-23T12:58:55.057Z,101076.03
2022-10-23T13:01:33.697Z,101075.56
2022-10-23T13:04:16.595Z,101073.63
2022-10-23T13:06:50.366Z,101062.03
2022-10-23T13:09:28.044Z,101060.59
2022-10-23T13:12:02.767Z,101063.41
2022-10-23T13:14:42.149Z,101060.78
2022-10-23T13:17:16.365Z,101054.09
2022-10-23T13:19:48.281Z,101051.69
2022-10-23T13:22:21.750Z,101054.59
2022-10-23T13:24:53.638Z,101056.38
2022-10-23T13:27:34.934Z,101053.75
2022-10-23T13:30:35.713Z,101046.72
2022-10-23T13:33:23.480Z,101038.84
2022-10-23T13:36:18.831Z,101035.22
2022-10-23T13:39:10.050Z,101038.06
2022-10-23T13:41:46.047Z,101048.94
2022-10-23T13:44:22.051Z,101046.31
2022-10-23T13:46:54.071Z,101036.47
2022-10-23T13:49:26.120Z,101024.09
2022-10-23T13:51:59.147Z,101026.69
2022-10-23T13:54:31.466Z,101024.72
2022-10-23T13:57:03.390Z,101028.41
2022-10-23T13:59:35.314Z,101013.47
2022-10-23T14:02:23.181Z,101011.75
2022-10-23T14:04:55.254Z,100990.41
2022-10-23T14:07:27.152Z,100991.25
2022-10-23T14:09:59.059Z,100992.91
2022-10-23T14:12:30.976Z,101001.75
2022-10-23T14:15:02.933Z,101003.44
2022-10-23T14:17:35.720Z,100988.59
2022-10-23T14:20:08.749Z,100991.22
2022-10-23T14:22:40.787Z,100986.81
2022-10-23T14:25:12.953Z,100985.75
2022-10-23T14:27:45.301Z,100978.03
2022-10-23T14:30:17.335Z,100980.59
2022-10-23T14:32:50.058Z,100981.88
2022-10-23T14:35:22.192Z,100974.81
2022-10-23T14:37:54.061Z,100973.34
2022-10-23T14:40:26.344Z,100962.84
2022-10-23T14:42:58.328Z,100960.16
2022-10-23T14:45:30.245Z,100942.56
2022-10-23T14:48:02.583Z,100929.50
2022-10-23T14:50:37.555Z,100912.66
2022-10-23T14:53:09.434Z,100905.94
2022-10-23T14:55:41.565Z,100903.44
2022-10-23T14:58:13.542Z,100885.81
2022-10-23T15:00:45.469Z,100865.69
2022-10-23T15:03:18.320Z,100854.28
2022-10-23T15:05:50.332Z,100848.22
2022-10-23T15:08:23.229Z,100851.44
2022-10-23T15:10:55.260Z,100851.63
2022-10-23T15:13:27.400Z,100857.84
2022-10-23T15:16:06.013Z,100859.59
2022-10-23T15:21:30.039Z,100859.84
2022-10-23T15:24:02.530Z,100860.72
2022-10-23T15:26:34.514Z,100865.91
2022-10-23T15:29:06.726Z,100853.50
2022-10-23T15:31:38.689Z,100854.38
2022-10-23T15:34:18.820Z,100849.19
2022-10-23T15:36:51.807Z,100848.53
2022-10-23T15:39:27.726Z,100858.22
2022-10-23T15:42:00.340Z,100852.16
2022-10-23T15:44:33.682Z,100863.69
2022-10-23T15:47:05.570Z,100853.28
2022-10-23T15:49:38.276Z,100867.31
2022-10-23T15:52:11.179Z,100870.03
2022-10-23T15:54:43.304Z,100863.81
2022-10-23T15:57:15.230Z,100847.97
2022-10-23T15:59:47.944Z,100849.91
2022-10-23T16:02:20.165Z,100843.19
2022-10-23T16:04:52.226Z,100838.59
2022-10-23T16:07:24.243Z,100828.88
2022-10-23T16:09:56.284Z,100827.25
2022-10-23T16:12:28.585Z,100824.56
2022-10-23T16:15:00.557Z,100817.66
2022-10-23T16:17:32.480Z,100808.84
2022-10-23T16:20:04.916Z,100803.66
2022-10-23T16:22:40.150Z,100804.69
2022-10-23T16:25:14.922Z,100801.44
2022-10-23T16:27:47.311Z,100802.25
2022-10-23T16:30:21.284Z,100808.41
2022-10-23T16:32:54.893Z,100802.31
2022-10-23T16:35:26.999Z,100786.53
2022-10-23T16:37:58.967Z,100776.75
2022-10-23T16:40:31.455Z,100769.69
2022-10-23T16:43:03.682Z,100768.78
2022-10-23T16:45:37.721Z,100760.25
2022-10-23T16:48:09.841Z,100760.41
2022-10-23T16:50:42.115Z,100756.59
2022-10-23T16:53:14.028Z,100762.63
2022-10-23T16:55:45.967Z,100753.97
2022-10-23T16:58:17.896Z,100745.22
2022-10-23T17:01:23.532Z,100740.78
2022-10-23T17:03:57.006Z,100729.41
2022-10-23T17:06:31.924Z,100733.03
2022-10-23T17:09:05.885Z,100741.88
2022-10-23T17:11:40.239Z,100733.78
2022-10-23T17:14:17.514Z,100736.44
2022-10-23T17:16:52.170Z,100739.84
2022-10-23T17:19:43.868Z,100732.94
2022-10-23T17:22:16.893Z,100746.00
2022-10-23T17:24:51.554Z,100740.88
2022-10-23T17:27:25.826Z,100742.53
2022-10-23T17:29:58.229Z,100749.59
2022-10-23T17:32:30.156Z,100744.22
2022-10-23T17:35:05.377Z,100745.94
2022-10-23T17:37:37.336Z,100741.72
2022-10-23T17:40:09.835Z,100746.13
2022-10-23T17:42:41.940Z,100740.06
2022-10-23T17:45:14.041Z,100738.41
2022-10-23T17:47:45.928Z,100743.78
2022-10-23T17:50:17.938Z,100746.41
2022-10-23T17:52:49.891Z,100760.28
2022-10-23T17:55:21.854Z,100779.44
2022-10-23T17:57:53.792Z,100785.03
2022-10-23T18:00:26.048Z,100776.19
2022-10-23T18:02:57.964Z,100782.47
2022-10-23T18:05:32.935Z,100775.34
2022-10-23T18:08:05.102Z,100776.25
2022-10-23T18:10:37.121Z,100777.88
2022-10-23T18:13:09.069Z,100769.91
2022-10-23T18:15:41.079Z,100773.47
2022-10-23T18:18:12.989Z,100777.16
2022-10-23T18:20:44.955Z,100765.28
2022-10-23T18:23:16.886Z,100759.75
2022-10-23T18:25:49.236Z,100754.25
2022-10-23T18:28:21.254Z,100742.06
2022-10-23T18:30:56.086Z,100744.69
2022-10-23T18:33:29.074Z,100745.41
2022-10-23T18:36:01.016Z,100748.16
2022-10-23T18:38:32.966Z,100743.78
2022-10-23T18:41:04.919Z,100741.72
2022-10-23T18:43:43.633Z,100746.13
2022-10-23T18:46:16.391Z,100753.25
2022-10-23T18:48:50.976Z,100767.06
2022-10-23T18:51:28.624Z,100757.56
2022-10-23T18:54:06.598Z,100758.41
2022-10-23T18:56:39.855Z,100760.34
2022-10-23T18:59:16.500Z,100763.00
2022-10-23T19:01:49.315Z,100764.84
2022-10-23T19:04:21.481Z,100764.84
2022-10-23T19:06:53.719Z,100767.75
2022-10-23T19:09:25.686Z,100760.56
2022-10-23T19:11:58.215Z,100757.06
2022-10-23T19:14:30.198Z,100758.66
2022-10-23T19:17:32.431Z,100754.09
2022-10-23T19:20:13.604Z,100741.00
2022-10-23T19:22:49.100Z,100729.34
2022-10-23T19:25:31.979Z,100716.97
2022-10-23T19:28:04.701Z,100700.38
2022-10-23T19:30:36.870Z,100674.78
2022-10-23T19:33:08.780Z,100641.75
2022-10-23T19:35:40.692Z,100637.09
2022-10-23T19:38:12.620Z,100645.69
2022-10-23T19:40:44.717Z,100609.34
2022-10-23T19:43:16.653Z,100589.25
2022-10-23T19:45:55.896Z,100630.72
2022-10-23T19:48:27.783Z,100632.53
2022-10-23T19:50:59.772Z,100625.41
2022-10-23T19:53:31.687Z,100597.16
2022-10-23T19:56:09.189Z,100631.19
2022-10-23T19:58:41.764Z,100647.81
2022-10-23T20:01:18.657Z,100626.00
2022-10-23T20:03:51.423Z,100639.00
2022-10-23T20:06:28.408Z,100627.63
2022-10-23T20:09:03.173Z,100619.69
2022-10-23T20:11:38.103Z,100610.88
2022-10-23T20:14:10.109Z,100602.97
2022-10-23T20:16:45.400Z,100610.78
2022-10-23T20:22:09.513Z,100616.88
2022-10-23T20:24:42.454Z,100606.28
2022-10-23T20:27:14.763Z,100605.44
2022-10-23T20:29:46.831Z,100603.69
2022-10-23T20:32:18.792Z,100595.88
2022-10-23T20:34:50.805Z,100599.44
2022-10-23T20:37:22.956Z,100588.06
2022-10-23T20:39:55.633Z,100612.78
2022-10-23T20:42:27.582Z,100606.59
2022-10-23T20:44:59.546Z,100600.56
2022-10-23T20:47:31.490Z,100616.34
2022-10-23T20:50:03.729Z,100619.06
2022-10-23T20:52:35.765Z,100626.91
2022-10-23T20:55:08.096Z,100626.91
2022-10-23T20:57:40.018Z,100634.78
2022-10-23T21:00:12.368Z,100636.50
2022-10-23T21:02:47.241Z,100648.13
2022-10-23T21:05:21.819Z,100647.31
2022-10-23T21:07:53.761Z,100644.72
2022-10-23T21:10:25.895Z,100666.59
2022-10-23T21:12:57.822Z,100663.81
2022-10-23T21:15:29.816Z,100669.84
2022-10-23T21:18:13.036Z,100662.19
2022-10-23T21:20:55.014Z,100677.38
2022-10-23T21:23:29.140Z,100665.22
2022-10-23T21:26:06.994Z,100667.00
2022-10-23T21:28:41.781Z,100684.53
2022-10-23T21:31:24.163Z,100673.13
2022-10-23T21:33:56.316Z,100685.13
2022-10-23T21:36:31.059Z,100680.91
2022-10-23T21:39:03.978Z,100687.16
2022-10-23T21:41:35.948Z,100683.63
2022-10-23T21:44:08.032Z,100682.81
2022-10-23T21:46:41.725Z,100675.72
2022-10-23T21:49:13.795Z,100659.06
2022-10-23T21:51:47.319Z,100673.25
2022-10-23T21:54:19.305Z,100673.25
2022-10-23T21:56:53.950Z,100675.09
2022-10-23T21:59:30.022Z,100680.31
2022-10-23T22:02:04.188Z,100689.94
2022-10-23T22:04:36.366Z,100688.19
2022-10-23T22:07:10.880Z,100684.66
2022-10-23T22:09:45.353Z,100690.06
2022-10-23T22:12:17.278Z,100684.06
2022-10-23T22:14:49.288Z,100689.25
2022-10-23T22:17:21.191Z,100692.66
2022-10-23T22:19:53.152Z,100678.59
2022-10-23T22:22:25.145Z,100683.91
2022-10-23T22:24:57.093Z,100679.75
2022-10-23T22:27:29.049Z,100675.59
2022-10-23T22:30:03.808Z,100664.03
2022-10-23T22:32:36.033Z,100666.53
2022-10-23T22:35:08.335Z,100658.47
2022-10-23T22:37:40.228Z,100658.50
2022-10-23T22:40:13.052Z,100663.81
2022-10-23T22:42:45.288Z,100657.78
2022-10-23T22:45:17.471Z,100666.44
2022-10-23T22:47:49.357Z,100671.63
2022-10-23T22:50:21.300Z,100667.22
2022-10-23T22:52:53.205Z,100657.56
2022-10-23T22:55:25.131Z,100662.69
2022-10-23T22:57:57.021Z,100671.63
2022-10-23T23:00:29.088Z,100670.72
2022-10-23T23:03:01.119Z,100664.56
2022-10-23T23:05:33.459Z,100667.94
2022-10-23T23:08:05.505Z,100665.31
2022-10-23T23:10:37.695Z,100680.34
2022-10-23T23:13:09.647Z,100674.19
2022-10-23T23:15:41.608Z,100662.72
2022-10-23T23:18:13.677Z,100665.31
2022-10-23T23:20:45.625Z,100668.91
2022-10-23T23:23:18.084Z,100662.75
2022-10-23T23:25:50.559Z,100655.78
2022-10-23T23:28:22.823Z,100661.94
2022-10-23T23:31:14.072Z,100669.81
2022-10-23T23:33:46.337Z,100668.97
2022-10-23T23:36:25.649Z,100673.28
2022-10-23T23:38:58.527Z,100662.78
2022-10-23T23:41:30.694Z,100657.56
2022-10-23T23:44:02.603Z,100654.00
2022-10-23T23:46:34.592Z,100654.03
2022-10-23T23:49:06.537Z,100667.19
2022-10-23T23:51:38.451Z,100653.16
2022-10-23T23:54:10.458Z,100657.47
2022-10-23T23:56:42.451Z,100662.78
2022-10-23T23:59:14.366Z,100670.00
